Time;durP1;ratioP1;P1;durP2;ratioP2;P2;SDS_P1;SDS_P2;PMS_P1;PMS_P2;Temp;Humidity;BMP_temperature;BMP_pressure;BME280_temperature;BME280_humidity;BME280_pressure;Samples;Min_cycle;Max_cycle;Signal;HPM_P1;HPM_P2
2023/04/06 00:00:09;;;;;;;7.87;6.07;;;3.60;99.90;;;-141.84;59.97;19297.66;5071263;28;20231;-47
2023/04/06 00:02:37;;;;;;;8.90;6.40;;;3.60;99.90;;;-141.84;60.02;19299.69;5086684;28;20253;-53
2023/04/06 00:05:07;;;;;;;9.77;6.20;;;3.60;99.90;;;-141.84;59.99;19320.00;5090285;28;20666;-50
2023/04/06 00:07:35;;;;;;;9.77;6.43;;;3.60;99.90;;;-141.84;59.86;19289.53;5071385;28;20233;-53
2023/04/06 00:10:05;;;;;;;6.30;5.70;;;3.60;99.90;;;-141.84;59.88;19275.31;5070810;28;20223;-53
2023/04/06 00:12:33;;;;;;;7.83;6.20;;;3.60;99.90;;;-141.84;59.67;19324.06;5070826;28;20225;-53
2023/04/06 00:15:02;;;;;;;7.40;6.53;;;3.70;99.90;;;-141.84;59.95;19317.97;5070649;28;20229;-56
2023/04/06 00:17:32;;;;;;;9.17;6.60;;;3.70;99.90;;;-141.84;60.47;19336.25;5070785;28;20314;-50
2023/04/06 00:20:01;;;;;;;7.00;6.03;;;3.70;99.90;;;-141.84;59.78;19291.56;5071331;28;20197;-53
2023/04/06 00:22:29;;;;;;;7.93;6.50;;;3.70;99.90;;;-141.84;59.44;19309.84;5070560;28;20226;-50
2023/04/06 00:24:57;;;;;;;7.90;5.80;;;3.70;99.90;;;-141.84;59.88;19305.78;5065692;28;20233;-54
2023/04/06 00:27:26;;;;;;;8.37;6.50;;;3.70;99.90;;;-141.84;60.16;19303.75;5051388;28;20730;-52
2023/04/06 00:29:54;;;;;;;7.40;6.10;;;3.70;99.90;;;-141.84;59.79;19301.72;5056136;28;20219;-50
2023/04/06 00:32:22;;;;;;;6.97;6.00;;;3.70;99.90;;;-141.84;59.81;19291.56;5070712;28;20590;-53
2023/04/06 00:34:52;;;;;;;6.83;6.00;;;3.70;99.90;;;-141.84;59.94;19303.75;5071468;28;20253;-50
2023/04/06 00:37:20;;;;;;;8.27;6.23;;;3.60;99.90;;;-141.84;60.04;19291.56;5069968;28;20280;-53
2023/04/06 00:39:48;;;;;;;6.53;5.53;;;3.60;99.90;;;-141.84;60.33;19301.72;5070563;28;20230;-52
2023/04/06 00:42:17;;;;;;;8.13;6.40;;;3.60;99.90;;;-141.84;60.41;19315.94;5068861;28;20221;-54
2023/04/06 00:44:46;;;;;;;6.97;6.13;;;3.60;99.90;;;-141.84;60.75;19261.06;5050725;28;20233;-51
2023/04/06 00:47:14;;;;;;;7.60;6.47;;;3.60;99.90;;;-141.84;60.36;19293.59;5050671;28;20218;-51
2023/04/06 00:49:42;;;;;;;8.23;6.43;;;3.60;99.90;;;-141.84;60.14;19303.75;5051037;28;20203;-53
2023/04/06 00:52:12;;;;;;;8.20;6.20;;;3.50;99.90;;;-141.84;60.02;19273.28;5050271;28;20233;-53
2023/04/06 00:54:40;;;;;;;8.27;6.77;;;3.50;99.90;;;-141.84;59.43;19277.34;5050250;28;20238;-51
2023/04/06 00:57:09;;;;;;;8.03;6.10;;;3.60;99.90;;;-141.84;59.80;19273.28;5052307;28;20242;-53
2023/04/06 00:59:37;;;;;;;7.97;6.63;;;3.50;99.90;;;-141.84;59.91;19315.94;5090476;28;20233;-50
2023/04/06 01:02:06;;;;;;;7.77;6.30;;;3.50;99.90;;;-141.84;60.38;19287.50;5073628;28;20208;-54
2023/04/06 01:04:35;;;;;;;7.73;6.80;;;3.50;99.90;;;-141.84;60.31;19273.28;5070460;28;20748;-51
2023/04/06 01:07:03;;;;;;;8.67;6.77;;;3.50;99.90;;;-141.84;60.56;19277.34;5068565;28;20221;-51
2023/04/06 01:09:33;;;;;;;7.60;6.80;;;3.50;99.90;;;-141.84;60.63;19254.97;5070025;28;20257;-53
2023/04/06 01:12:03;;;;;;;8.00;7.00;;;3.50;99.90;;;-141.84;60.75;19279.38;5070160;28;20287;-51
2023/04/06 01:14:31;;;;;;;7.33;6.37;;;3.50;99.90;;;-141.84;60.68;19301.72;5049979;28;20601;-53
2023/04/06 01:17:01;;;;;;;7.73;6.70;;;3.40;99.90;;;-141.84;60.45;19285.47;5053435;28;20707;-54
2023/04/06 01:19:29;;;;;;;8.33;6.67;;;3.50;99.90;;;-141.84;60.50;19293.59;5070090;28;20235;-52
2023/04/06 01:21:58;;;;;;;6.73;6.03;;;3.50;99.90;;;-141.84;60.76;19275.31;5069934;28;20232;-50
2023/04/06 01:24:27;;;;;;;8.83;6.63;;;3.50;99.90;;;-141.84;61.01;19305.78;5069692;28;20241;-52
2023/04/06 01:26:56;;;;;;;7.07;6.03;;;3.40;99.90;;;-141.84;61.35;19275.31;5070165;28;20244;-50
2023/04/06 01:29:24;;;;;;;8.27;6.03;;;3.50;99.90;;;-141.84;61.54;19277.34;5070008;28;20607;-50
2023/04/06 01:31:53;;;;;;;13.47;6.47;;;3.50;99.90;;;-141.84;61.42;19291.56;5070392;28;20214;-51
2023/04/06 01:34:21;;;;;;;7.80;6.70;;;3.50;99.90;;;-141.84;61.32;19283.44;5069862;28;20229;-51
2023/04/06 01:36:50;;;;;;;7.87;6.73;;;3.50;99.90;;;-141.84;61.19;19299.69;5069270;28;20734;-53
2023/04/06 01:39:18;;;;;;;7.70;6.40;;;3.50;99.90;;;-141.84;61.17;19279.38;5061609;28;20254;-48
2023/04/06 01:41:48;;;;;;;8.33;6.30;;;3.50;99.90;;;-141.84;61.20;19277.34;5050978;28;20229;-48
2023/04/06 01:44:18;;;;;;;7.30;5.90;;;3.50;99.90;;;-141.84;61.13;19285.47;5069919;28;20209;-50
2023/04/06 01:46:47;;;;;;;6.67;5.87;;;3.50;99.90;;;-141.84;60.66;19320.00;5070394;28;20515;-49
2023/04/06 01:49:15;;;;;;;9.37;6.40;;;3.50;99.90;;;-141.84;60.74;19248.88;5072423;28;20233;-53
2023/04/06 01:51:43;;;;;;;7.57;6.23;;;3.50;99.90;;;-141.84;60.66;19257.00;5073538;28;20231;-52
2023/04/06 01:54:12;;;;;;;6.87;6.03;;;3.50;99.90;;;-141.84;60.56;19259.03;5081333;28;20252;-51
2023/04/06 01:56:40;;;;;;;7.23;6.40;;;3.50;99.90;;;-141.84;60.80;19293.59;5090944;28;20224;-48
2023/04/06 01:59:10;;;;;;;10.40;6.37;;;3.50;99.90;;;-141.84;61.17;19277.34;5073875;28;20201;-49
2023/04/06 02:01:38;;;;;;;6.67;5.77;;;3.50;99.90;;;-141.84;61.53;19299.69;5074184;28;20240;-48
2023/04/06 02:04:07;;;;;;;6.77;6.07;;;3.50;99.90;;;-141.84;61.45;19285.47;5073547;28;20233;-48
2023/04/06 02:06:35;;;;;;;6.30;5.47;;;3.50;99.90;;;-141.84;61.48;19257.00;5072958;28;20807;-52
2023/04/06 02:09:03;;;;;;;7.00;5.67;;;3.50;99.90;;;-141.84;61.08;19265.13;5073468;28;20269;-51
2023/04/06 02:11:32;;;;;;;6.67;5.50;;;3.50;99.90;;;-141.84;61.71;19275.31;5073170;28;20239;-50
2023/04/06 02:14:00;;;;;;;7.20;6.30;;;3.40;99.90;;;-141.84;61.57;19277.34;5073983;28;20201;-51
2023/04/06 02:16:30;;;;;;;6.13;5.53;;;3.40;99.90;;;-141.84;61.46;19271.25;5073093;28;20641;-53
2023/04/06 02:18:58;;;;;;;7.63;5.90;;;3.40;99.90;;;-141.84;61.51;19244.81;5072836;28;20221;-49
2023/04/06 02:21:27;;;;;;;6.17;5.57;;;3.40;99.90;;;-141.84;61.43;19289.53;5072849;28;20229;-52
2023/04/06 02:23:55;;;;;;;6.17;5.57;;;3.40;99.90;;;-141.84;61.85;19275.31;5073118;28;20236;-48
2023/04/06 02:26:23;;;;;;;6.87;5.87;;;3.50;99.90;;;-141.84;61.43;19281.41;5072742;28;20695;-52
2023/04/06 02:28:52;;;;;;;7.47;6.50;;;3.50;99.90;;;-141.84;61.55;19265.13;5073651;28;20224;-52
2023/04/06 02:31:20;;;;;;;6.50;5.77;;;3.50;99.90;;;-141.84;61.77;19259.03;5072822;28;20752;-53
2023/04/06 02:33:50;;;;;;;6.93;6.23;;;3.40;99.90;;;-141.84;61.53;19322.03;5073300;28;20255;-51
2023/04/06 02:36:18;;;;;;;6.97;5.97;;;3.40;99.90;;;-141.84;61.71;19257.00;5072405;28;20238;-53
2023/04/06 02:38:46;;;;;;;8.17;5.73;;;3.40;99.90;;;-141.84;61.90;19261.06;5073306;28;20298;-53
2023/04/06 02:41:15;;;;;;;8.33;5.97;;;3.40;99.90;;;-141.84;61.25;19301.72;5073003;28;20219;-53
2023/04/06 02:43:43;;;;;;;8.03;6.60;;;3.40;99.90;;;-141.84;61.47;19287.50;5073320;28;20247;-53
2023/04/06 02:46:11;;;;;;;8.47;5.83;;;3.40;99.90;;;-141.84;61.78;19257.00;5072605;28;20224;-51
2023/04/06 02:48:39;;;;;;;8.70;6.30;;;3.40;99.90;;;-141.84;61.84;19295.63;5072417;28;20772;-52
2023/04/06 02:51:09;;;;;;;6.93;6.23;;;3.40;99.90;;;-141.84;61.97;19275.31;5085856;28;20236;-52
2023/04/06 02:53:37;;;;;;;6.30;5.70;;;3.40;99.90;;;-141.84;61.85;19259.03;5081475;28;20234;-52
2023/04/06 02:56:07;;;;;;;8.00;6.67;;;3.30;99.90;;;-141.84;62.19;19263.09;5072625;28;20201;-50
2023/04/06 02:58:35;;;;;;;7.73;6.43;;;3.30;99.90;;;-141.84;62.63;19236.69;5072718;28;20202;-50
2023/04/06 03:01:03;;;;;;;8.70;6.50;;;3.30;99.90;;;-141.84;62.77;19200.13;5072316;28;20230;-52
2023/04/06 03:03:32;;;;;;;9.03;6.50;;;3.20;99.90;;;-141.84;62.67;19279.38;5072496;28;20255;-53
2023/04/06 03:06:00;;;;;;;8.03;6.80;;;3.20;99.90;;;-141.84;63.12;19234.66;5072207;28;20265;-51
2023/04/06 03:08:30;;;;;;;8.00;6.97;;;3.10;99.90;;;-141.84;63.15;19244.81;5072288;28;20229;-51
2023/04/06 03:10:58;;;;;;;7.53;6.60;;;3.10;99.90;;;-141.84;63.20;19228.56;5072905;28;20672;-51
2023/04/06 03:13:26;;;;;;;8.00;6.73;;;3.10;99.90;;;-141.84;63.33;19240.75;5071871;28;20627;-52
2023/04/06 03:15:55;;;;;;;7.83;6.73;;;3.10;99.90;;;-141.84;63.61;19265.13;5072303;28;20228;-52
2023/04/06 03:18:25;;;;;;;7.87;6.60;;;3.10;99.90;;;-141.84;63.95;19232.63;5071870;28;20790;-50
2023/04/06 03:20:54;;;;;;;7.17;6.47;;;3.00;99.90;;;-141.84;64.27;19232.63;5072158;28;20256;-51
2023/04/06 03:23:23;;;;;;;7.87;6.83;;;3.00;99.90;;;-141.84;64.49;19226.53;5071884;28;20238;-50
2023/04/06 03:25:52;;;;;;;9.27;6.70;;;3.00;99.90;;;-141.84;64.86;19228.56;5072561;28;20213;-51
2023/04/06 03:28:21;;;;;;;7.20;6.50;;;2.90;99.90;;;-141.84;65.00;19236.69;5071755;28;20225;-54
2023/04/06 03:30:50;;;;;;;7.97;7.00;;;2.90;99.90;;;-141.84;65.50;19212.31;5071795;28;20549;-48
2023/04/06 03:33:18;;;;;;;8.93;7.00;;;2.80;99.90;;;-141.84;65.86;19236.69;5071695;28;20232;-53
2023/04/06 03:35:46;;;;;;;9.20;7.33;;;2.70;99.90;;;-141.84;66.00;19194.03;5071612;28;20228;-52
2023/04/06 03:38:15;;;;;;;8.93;6.73;;;2.70;99.90;;;-141.84;65.60;19204.19;5071497;28;20227;-54
2023/04/06 03:40:43;;;;;;;9.03;6.70;;;2.70;99.90;;;-141.84;66.08;19208.25;5072515;28;20209;-52
2023/04/06 03:43:13;;;;;;;9.10;7.73;;;2.60;99.90;;;-141.84;65.94;19206.22;5071614;28;20557;-52
2023/04/06 03:45:41;;;;;;;9.30;6.93;;;2.60;99.90;;;-141.84;66.56;19185.88;5071630;28;20299;-53
2023/04/06 03:48:09;;;;;;;7.77;6.97;;;2.50;99.90;;;-141.84;66.66;19216.38;5091109;28;20231;-54
2023/04/06 03:50:38;;;;;;;7.93;6.73;;;2.50;99.90;;;-141.84;67.23;19200.13;5076042;28;20764;-50
2023/04/06 03:53:06;;;;;;;7.77;7.00;;;2.40;99.90;;;-141.84;67.99;19187.91;5072550;28;20208;-53
2023/04/06 03:55:34;;;;;;;8.90;7.10;;;2.30;99.90;;;-141.84;68.00;19198.09;5072101;28;20201;-52
2023/04/06 03:58:02;;;;;;;10.87;7.23;;;2.20;99.90;;;-141.84;68.42;19179.78;5071322;28;20715;-50
2023/04/06 04:00:32;;;;;;;8.50;7.20;;;2.20;99.90;;;-141.84;68.35;19149.31;5071237;28;20275;-53
2023/04/06 04:03:01;;;;;;;8.97;7.00;;;2.10;99.90;;;-141.84;68.47;19155.41;5071446;28;20316;-50
2023/04/06 04:05:30;;;;;;;8.47;7.33;;;2.10;99.90;;;-141.84;69.04;19198.09;5071309;28;20221;-53
2023/04/06 04:07:58;;;;;;;7.63;6.93;;;2.10;99.90;;;-141.84;68.56;19179.78;5071749;28;20338;-50
2023/04/06 04:10:27;;;;;;;8.20;7.40;;;2.10;99.90;;;-141.84;68.93;19187.91;5070277;28;20224;-53
2023/04/06 04:12:55;;;;;;;9.43;7.67;;;2.10;99.90;;;-141.84;69.50;19163.53;5070670;28;20255;-52
2023/04/06 04:15:23;;;;;;;9.97;7.57;;;2.00;99.90;;;-141.84;69.36;19175.72;5070915;28;20712;-49
2023/04/06 04:17:53;;;;;;;8.80;7.13;;;2.00;99.90;;;-141.84;69.78;19181.81;5070680;28;20738;-50
2023/04/06 04:20:21;;;;;;;9.30;7.67;;;2.00;99.90;;;-141.84;69.96;19169.63;5070331;28;20228;-53
2023/04/06 04:22:50;;;;;;;8.47;7.57;;;1.90;99.90;;;-141.84;70.29;19143.22;5071331;28;20282;-51
2023/04/06 04:25:18;;;;;;;8.87;7.53;;;1.90;99.90;;;-141.84;70.47;19137.13;5070623;28;20239;-52
2023/04/06 04:27:46;;;;;;;8.40;7.60;;;1.90;99.90;;;-141.84;70.36;19131.03;5070479;28;20220;-51
2023/04/06 04:30:15;;;;;;;8.93;7.77;;;1.90;99.90;;;-141.84;70.83;19159.47;5070098;28;20228;-53
2023/04/06 04:32:43;;;;;;;10.50;7.23;;;1.80;99.90;;;-141.84;70.66;19141.19;5070679;28;20310;-53
2023/04/06 04:35:13;;;;;;;8.57;7.67;;;1.80;99.90;;;-141.84;70.34;19120.88;5070647;28;20208;-53
2023/04/06 04:37:42;;;;;;;9.33;7.43;;;1.90;99.90;;;-141.84;70.71;19143.22;5070965;28;20216;-51
2023/04/06 04:40:12;;;;;;;9.27;7.43;;;1.90;99.90;;;-141.84;71.06;19122.91;5070551;28;20311;-51
2023/04/06 04:42:41;;;;;;;8.40;7.50;;;1.80;99.90;;;-141.84;71.67;19169.63;5075717;28;20220;-49
2023/04/06 04:45:10;;;;;;;12.17;9.77;;;1.80;99.90;;;-141.84;71.23;19118.84;5089881;28;20226;-54
2023/04/06 04:47:38;;;;;;;10.23;8.17;;;1.80;99.90;;;-141.84;71.43;19149.31;5070223;28;20236;-54
2023/04/06 04:50:08;;;;;;;9.20;7.77;;;1.90;99.90;;;-141.84;71.83;19137.13;5070245;28;20255;-54
2023/04/06 04:52:39;;;;;;;11.27;8.60;;;1.90;99.90;;;-141.84;71.09;19141.19;5070393;28;20207;-53
2023/04/06 04:55:08;;;;;;;10.87;8.93;;;1.90;99.90;;;-141.84;70.93;19151.34;5070253;28;20228;-54
2023/04/06 04:57:36;;;;;;;9.37;8.13;;;2.00;99.90;;;-141.84;71.25;19163.53;5070219;28;20227;-53
2023/04/06 05:00:06;;;;;;;10.20;8.30;;;2.00;99.90;;;-141.84;71.32;19108.69;5069988;28;20224;-53
2023/04/06 05:02:34;;;;;;;9.30;8.10;;;2.00;99.90;;;-141.84;71.53;19133.06;5070121;28;20225;-54
2023/04/06 05:05:02;;;;;;;10.53;8.07;;;2.00;99.90;;;-141.84;71.57;19139.16;5066457;28;20210;-54
2023/04/06 05:07:31;;;;;;;8.70;7.60;;;2.00;99.90;;;-141.84;71.24;19161.50;5050431;28;20221;-51
2023/04/06 05:10:00;;;;;;;10.27;8.13;;;2.00;99.90;;;-141.84;71.10;19161.50;5050034;28;20724;-55
2023/04/06 05:12:29;;;;;;;9.70;8.17;;;2.10;99.90;;;-141.84;71.20;19151.34;5050354;28;20221;-52
2023/04/06 05:14:57;;;;;;;10.80;8.50;;;2.00;99.90;;;-141.84;70.57;19163.53;5049801;28;20236;-51
2023/04/06 05:17:26;;;;;;;10.03;8.20;;;2.10;99.90;;;-141.84;70.32;19179.78;5056956;28;20282;-53
2023/04/06 05:19:55;;;;;;;9.63;8.63;;;2.10;99.90;;;-141.84;70.69;19165.56;5070234;28;20246;-53
2023/04/06 05:22:23;;;;;;;10.00;8.30;;;2.10;99.90;;;-141.84;70.11;19124.94;5069594;28;20224;-53
2023/04/06 05:24:51;;;;;;;9.57;8.23;;;2.20;99.90;;;-141.84;70.21;19122.91;5056694;28;20233;-53
2023/04/06 05:27:21;;;;;;;10.43;8.57;;;2.20;99.90;;;-141.84;70.17;19139.16;5064145;28;20744;-50
2023/04/06 05:29:50;;;;;;;11.00;8.47;;;2.30;99.90;;;-141.84;70.01;19163.53;5069739;28;20234;-50
2023/04/06 05:32:21;;;;;;;13.63;9.30;;;2.30;99.90;;;-141.84;69.21;19177.75;5070105;28;20219;-51
2023/04/06 05:34:50;;;;;;;10.30;8.70;;;2.40;99.90;;;-141.84;69.10;19157.44;5070457;28;20196;-52
2023/04/06 05:37:18;;;;;;;11.83;8.47;;;2.50;99.90;;;-141.84;68.67;19167.59;5069957;28;20236;-52
2023/04/06 05:39:47;;;;;;;13.50;10.40;;;2.60;99.90;;;-141.84;68.41;19185.88;5069690;28;20221;-50
2023/04/06 05:42:15;;;;;;;12.30;8.97;;;2.60;99.90;;;-141.84;68.00;19177.75;5069737;28;20220;-54
2023/04/06 05:44:44;;;;;;;10.90;7.97;;;2.70;99.90;;;-141.84;67.35;19212.31;5069585;28;20228;-53
2023/04/06 05:47:13;;;;;;;9.20;7.53;;;2.80;99.90;;;-141.84;66.79;19202.16;5069866;28;20203;-53
2023/04/06 05:49:43;;;;;;;9.80;8.17;;;2.90;99.90;;;-141.84;65.70;19222.47;5069782;28;20224;-52
2023/04/06 05:52:11;;;;;;;9.87;7.87;;;3.00;99.90;;;-141.84;64.85;19210.28;5069434;28;20238;-47
2023/04/06 05:54:39;;;;;;;10.40;8.43;;;3.10;99.90;;;-141.84;64.32;19246.84;5069487;28;20229;-52
2023/04/06 05:57:08;;;;;;;9.20;8.23;;;3.10;99.90;;;-141.84;64.08;19216.38;5069502;28;20230;-53
2023/04/06 05:59:36;;;;;;;12.10;8.00;;;3.20;99.90;;;-141.84;62.70;19236.69;5069350;28;20230;-51
2023/04/06 06:02:06;;;;;;;9.73;7.30;;;3.40;99.90;;;-141.84;61.92;19257.00;5069506;28;20727;-53
2023/04/06 06:04:35;;;;;;;9.80;7.73;;;3.50;99.90;;;-141.84;62.06;19244.81;5069629;28;20697;-51
2023/04/06 06:07:04;;;;;;;11.30;8.50;;;3.60;99.90;;;-141.84;61.48;19285.47;5069456;28;20224;-52
2023/04/06 06:09:32;;;;;;;7.97;7.17;;;3.70;99.90;;;-141.84;60.49;19289.53;5069261;28;20237;-52
2023/04/06 06:12:01;;;;;;;8.30;7.33;;;3.90;99.90;;;-141.84;60.05;19293.59;5069604;28;20256;-52
2023/04/06 06:14:29;;;;;;;9.93;7.30;;;4.10;99.90;;;-141.84;58.82;19326.09;5069278;28;20227;-53
2023/04/06 06:16:58;;;;;;;9.93;7.27;;;4.30;99.90;;;-141.84;58.04;19374.88;5069997;28;20207;-53
2023/04/06 06:19:27;;;;;;;8.93;7.03;;;4.50;99.90;;;-141.84;57.46;19378.94;5069085;28;20218;-51
2023/04/06 06:21:56;;;;;;;8.97;6.77;;;4.80;99.90;;;-141.84;54.82;19409.41;5050259;28;20239;-56
2023/04/06 06:24:24;;;;;;;8.17;7.13;;;5.00;99.90;;;-141.84;54.60;19425.69;5068155;28;20236;-52
2023/04/06 06:26:53;;;;;;;7.40;5.93;;;5.30;99.90;;;-141.84;54.20;19439.91;5049505;28;20231;-47
2023/04/06 06:29:21;;;;;;;8.97;6.73;;;5.50;99.90;;;-141.84;52.35;19462.25;5049720;28;20212;-56
2023/04/06 06:31:49;;;;;;;9.43;6.57;;;5.60;99.90;;;-141.84;52.78;19470.38;5050076;28;20230;-53
2023/04/06 06:34:18;;;;;;;7.87;6.53;;;5.70;99.90;;;-141.84;52.99;19448.03;5050027;28;20262;-50
2023/04/06 06:36:47;;;;;;;7.20;6.30;;;5.80;99.90;;;-141.84;52.45;19474.44;5075471;28;20239;-51
2023/04/06 06:39:19;;;;;;;10.27;6.87;;;5.80;99.90;;;-141.84;51.66;19498.84;5072663;28;20240;-53
2023/04/06 06:41:47;;;;;;;8.07;7.10;;;5.90;99.90;;;-141.84;51.32;19492.75;5072390;28;20219;-51
2023/04/06 06:44:16;;;;;;;8.43;6.80;;;6.00;99.90;;;-141.84;51.16;19500.88;5072620;28;20769;-52
2023/04/06 06:46:45;;;;;;;10.43;7.20;;;6.20;99.90;;;-141.84;49.81;19565.91;5073273;28;20301;-54
2023/04/06 06:49:14;;;;;;;7.53;6.83;;;6.30;99.90;;;-141.84;49.33;19541.50;5072852;28;20238;-52
2023/04/06 06:51:42;;;;;;;8.70;6.97;;;6.30;99.90;;;-141.84;48.78;19506.97;5072016;28;20254;-51
2023/04/06 06:54:11;;;;;;;7.00;5.93;;;6.30;99.90;;;-141.84;49.11;19543.53;5072608;28;20236;-51
2023/04/06 06:56:40;;;;;;;8.43;6.30;;;6.30;99.90;;;-141.84;49.29;19527.28;5072405;28;20224;-53
2023/04/06 06:59:08;;;;;;;8.17;6.37;;;6.40;99.90;;;-141.84;48.53;19543.53;5072572;28;20207;-56
2023/04/06 07:01:38;;;;;;;10.00;6.70;;;6.20;99.90;;;-141.84;48.41;19525.25;5067205;28;20201;-57
2023/04/06 07:04:07;;;;;;;7.07;6.43;;;6.20;99.90;;;-141.84;48.46;19525.25;5072417;28;20278;-51
2023/04/06 07:06:36;;;;;;;6.93;6.23;;;6.20;99.90;;;-141.84;48.09;19529.31;5069038;28;20235;-54
2023/04/06 07:09:05;;;;;;;6.67;6.07;;;6.40;99.90;;;-141.84;47.79;19549.63;5072181;28;20228;-50
2023/04/06 07:11:34;;;;;;;6.87;6.10;;;6.50;99.90;;;-141.84;47.72;19563.88;5072121;28;20297;-53
2023/04/06 07:14:03;;;;;;;8.70;6.63;;;6.60;99.90;;;-141.84;47.02;19569.97;5072981;28;20630;-49
2023/04/06 07:16:31;;;;;;;9.53;6.27;;;6.70;99.90;;;-141.84;46.05;19614.66;5072038;28;20221;-54
2023/04/06 07:18:59;;;;;;;10.33;6.67;;;6.90;99.90;;;-141.84;45.57;19667.50;5071009;28;20227;-53
2023/04/06 07:21:28;;;;;;;6.83;6.20;;;7.10;99.90;;;-141.84;44.83;19673.59;5071628;28;20231;-52
2023/04/06 07:23:56;;;;;;;8.20;6.07;;;7.40;99.90;;;-141.84;43.97;19659.38;5071598;28;20712;-51
2023/04/06 07:26:25;;;;;;;7.07;5.80;;;7.60;99.90;;;-141.84;43.95;19687.84;5071975;28;20228;-52
2023/04/06 07:28:55;;;;;;;6.40;5.80;;;7.70;99.90;;;-141.84;43.84;19722.38;5072677;28;20210;-54
2023/04/06 07:31:23;;;;;;;6.70;6.10;;;7.50;99.90;;;-141.84;43.94;19643.13;5076656;28;20224;-52
2023/04/06 07:33:52;;;;;;;6.50;5.83;;;7.60;99.90;;;-141.84;43.93;19683.78;5092147;28;20316;-50
2023/04/06 07:36:21;;;;;;;6.43;5.63;;;7.50;99.90;;;-141.84;43.75;19673.59;5077033;28;20598;-51
2023/04/06 07:38:50;;;;;;;7.70;6.10;;;7.50;99.90;;;-141.84;44.14;19679.72;5071575;28;20602;-53
2023/04/06 07:41:18;;;;;;;7.47;6.20;;;7.50;99.90;;;-141.84;43.34;19681.75;5071439;28;20203;-55
2023/04/06 07:43:46;;;;;;;8.97;5.63;;;7.60;99.90;;;-141.84;43.23;19687.84;5071850;28;20695;-55
2023/04/06 07:46:16;;;;;;;8.30;6.50;;;7.60;99.90;;;-141.84;42.72;19700.03;5071681;28;20240;-56
2023/04/06 07:48:44;;;;;;;6.20;5.50;;;7.60;99.90;;;-141.84;42.75;19704.09;5071484;28;20239;-54
2023/04/06 07:51:14;;;;;;;6.03;5.50;;;7.70;99.90;;;-141.84;42.88;19722.38;5071046;28;20224;-54
2023/04/06 07:53:42;;;;;;;7.00;5.90;;;7.60;99.90;;;-141.84;42.66;19687.84;5071510;28;20224;-52
2023/04/06 07:56:10;;;;;;;6.50;5.47;;;7.60;99.90;;;-141.84;43.01;19665.47;5071589;28;20576;-51
2023/04/06 07:58:39;;;;;;;6.00;5.40;;;7.60;99.90;;;-141.84;43.21;19683.78;5071832;28;20653;-52
2023/04/06 08:01:07;;;;;;;5.90;5.33;;;7.60;99.90;;;-141.84;43.18;19673.59;5070891;28;20224;-53
2023/04/06 08:03:37;;;;;;;6.53;5.77;;;7.60;99.90;;;-141.84;43.02;19720.34;5071086;28;20754;-50
2023/04/06 08:06:06;;;;;;;6.07;5.47;;;7.80;99.90;;;-141.84;41.92;19695.97;5070936;28;20229;-52
2023/04/06 08:08:34;;;;;;;7.73;6.20;;;7.70;99.90;;;-141.84;42.40;19687.84;5071119;28;20224;-54
2023/04/06 08:11:03;;;;;;;6.80;5.67;;;7.70;99.90;;;-141.84;42.44;19687.84;5071130;28;20221;-53
2023/04/06 08:13:31;;;;;;;7.57;5.77;;;7.70;99.90;;;-141.84;43.35;19730.50;5070768;28;20224;-52
2023/04/06 08:16:00;;;;;;;7.23;6.03;;;7.80;99.90;;;-141.84;42.32;19728.47;5070684;28;20259;-52
2023/04/06 08:18:29;;;;;;;9.70;6.77;;;7.90;99.90;;;-141.84;41.89;19740.69;5058485;28;20216;-52
2023/04/06 08:20:59;;;;;;;6.60;5.80;;;8.00;99.90;;;-141.84;41.96;19732.53;5070690;28;20240;-50
2023/04/06 08:23:27;;;;;;;7.93;6.50;;;8.00;99.90;;;-141.84;41.71;19720.34;5070186;28;20236;-50
2023/04/06 08:25:56;;;;;;;6.87;6.00;;;8.10;99.90;;;-141.84;41.49;19746.78;5071396;28;20193;-53
2023/04/06 08:28:24;;;;;;;6.83;5.80;;;8.20;99.90;;;-141.84;41.70;19761.00;5070091;28;20910;-52
2023/04/06 08:30:52;;;;;;;6.57;5.60;;;8.20;99.90;;;-141.84;41.83;19750.84;5070477;28;20238;-51
2023/04/06 08:33:21;;;;;;;7.70;5.90;;;8.20;99.90;;;-141.84;41.98;19765.06;5070377;28;20312;-53
2023/04/06 08:35:49;;;;;;;8.40;6.10;;;8.20;99.90;;;-141.84;41.50;19756.94;5070168;28;20644;-51
2023/04/06 08:38:19;;;;;;;7.10;5.97;;;8.30;99.90;;;-141.84;41.21;19763.03;5069989;28;20681;-52
2023/04/06 08:40:49;;;;;;;7.13;5.97;;;8.30;99.90;;;-141.84;41.23;19763.03;5070884;28;20205;-50
2023/04/06 08:43:22;;;;;;;6.17;5.57;;;8.40;99.90;;;-141.84;40.84;19765.06;5070074;28;20225;-55
2023/04/06 08:45:51;;;;;;;7.70;6.20;;;8.50;99.90;;;-141.84;40.82;19828.06;5070658;28;20228;-54
2023/04/06 08:48:20;;;;;;;6.83;6.13;;;8.60;99.90;;;-141.84;40.39;19793.50;5070135;28;20231;-55
2023/04/06 08:50:48;;;;;;;6.70;6.00;;;8.60;99.90;;;-141.84;40.41;19828.06;5069908;28;20829;-54
2023/04/06 08:53:19;;;;;;;7.70;6.00;;;8.80;99.90;;;-141.84;40.29;19866.69;5070224;28;20242;-54
2023/04/06 08:55:52;;;;;;;6.90;6.20;;;8.90;99.90;;;-141.84;40.04;19872.78;5070993;28;20191;-50
2023/04/06 08:58:21;;;;;;;7.07;5.90;;;9.00;99.90;;;-141.84;39.37;19887.00;5069535;28;20220;-52
2023/04/06 09:01:11;;;;;;;7.57;5.80;;;9.10;99.90;;;-141.84;38.58;19854.50;5070219;28;20262;-51
2023/04/06 09:03:41;;;;;;;7.43;5.87;;;9.10;99.90;;;-141.84;39.05;19862.63;5050154;28;20327;-53
2023/04/06 09:06:12;;;;;;;8.20;6.57;;;9.00;99.90;;;-141.84;39.06;19858.56;5058869;28;20228;-53
2023/04/06 09:08:42;;;;;;;6.80;6.10;;;9.10;99.90;;;-141.84;39.79;19878.88;5066890;28;20221;-53
2023/04/06 09:11:11;;;;;;;6.10;5.50;;;9.20;99.90;;;-141.84;39.56;19872.78;5070706;28;20201;-52
2023/04/06 09:13:48;;;;;;;7.43;6.00;;;9.30;99.90;;;-141.84;39.45;19830.09;5070551;28;20209;-51
2023/04/06 09:16:17;;;;;;;6.80;5.80;;;9.30;99.90;;;-141.84;38.03;19887.00;5070056;28;20730;-55
2023/04/06 09:18:46;;;;;;;7.00;5.30;;;9.40;99.90;;;-141.84;36.95;19895.13;5068322;28;20226;-53
2023/04/06 09:21:18;;;;;;;8.47;6.03;;;9.50;99.90;;;-141.84;37.72;19923.59;5069649;28;20299;-54
2023/04/06 09:23:48;;;;;;;7.00;6.00;;;9.60;99.90;;;-141.84;37.84;19931.72;5069661;28;20224;-56
2023/04/06 09:26:18;;;;;;;9.00;6.03;;;9.50;99.90;;;-141.84;38.03;19937.81;5070351;28;20200;-55
2023/04/06 09:28:48;;;;;;;7.23;5.90;;;9.60;99.90;;;-141.84;37.45;19962.19;5070366;28;20204;-53
2023/04/06 09:31:22;;;;;;;8.03;5.80;;;9.70;99.90;;;-141.84;35.60;19970.34;5069572;28;20228;-53
2023/04/06 09:33:51;;;;;;;6.60;4.70;;;9.80;99.90;;;-141.84;35.62;19968.31;5069769;28;20263;-53
2023/04/06 09:36:20;;;;;;;7.03;5.30;;;9.90;99.90;;;-141.84;34.90;20023.19;5069178;28;20249;-52
2023/04/06 09:38:59;;;;;;;6.13;5.00;;;10.00;99.90;;;-141.84;34.39;20031.31;5069333;28;20217;-53
2023/04/06 09:41:29;;;;;;;9.37;5.70;;;10.10;99.90;;;-141.84;34.42;20004.88;5069696;28;20591;-52
2023/04/06 09:44:06;;;;;;;7.27;5.50;;;10.10;99.90;;;-141.84;35.31;19986.59;5069779;28;20207;-55
2023/04/06 09:46:37;;;;;;;7.50;5.67;;;10.00;99.90;;;-141.84;35.23;20004.88;5069813;28;20205;-51
2023/04/06 09:49:29;;;;;;;6.43;5.27;;;10.00;99.90;;;-141.84;33.76;20008.94;5020502;28;20629;-53
2023/04/06 09:52:02;;;;;;;6.83;5.40;;;10.00;99.90;;;-141.84;33.83;19952.03;5069106;28;20651;-53
2023/04/06 09:54:33;;;;;;;5.83;4.57;;;9.90;99.90;;;-141.84;34.80;19950.00;5068766;28;20220;-53
2023/04/06 09:57:12;;;;;;;5.80;5.20;;;9.70;99.90;;;-141.84;35.26;19887.00;5069255;28;20209;-54
2023/04/06 09:59:51;;;;;;;7.43;5.23;;;9.50;99.90;;;-141.84;35.25;19907.31;5062288;28;20311;-55
2023/04/06 10:02:33;;;;;;;6.67;4.90;;;9.50;99.90;;;-141.84;35.19;19952.03;5070478;28;20200;-54
2023/04/06 10:05:10;;;;;;;6.00;5.07;;;9.50;99.90;;;-141.84;33.81;20000.81;5073271;28;20728;-53
2023/04/06 10:07:42;;;;;;;7.17;5.00;;;9.80;99.90;;;-141.84;33.59;20021.16;5051135;28;20698;-54
2023/04/06 10:10:30;;;;;;;6.23;4.97;;;10.00;99.90;;;-141.84;34.25;20004.88;5066518;28;20235;-51
2023/04/06 10:12:59;;;;;;;6.80;5.10;;;10.10;99.90;;;-141.84;33.33;20084.16;5073689;28;20229;-53
2023/04/06 10:15:30;;;;;;;5.60;5.10;;;10.30;99.90;;;-141.84;33.98;20096.34;5063899;28;20230;-53
2023/04/06 10:17:59;;;;;;;4.87;4.33;;;10.60;99.90;;;-141.84;32.72;20118.69;5052826;28;20260;-54